Time;durP1;ratioP1;P1;durP2;ratioP2;P2;SDS_P1;SDS_P2;PMS_P1;PMS_P2;Temp;Humidity;BMP_temperature;BMP_pressure;BME280_temperature;BME280_humidity;BME280_pressure;Samples;Min_cycle;Max_cycle;Signal;HPM_P1;HPM_P2
2023/02/18 00:01:42;;;;;;;1.90;1.17;;;11.90;99.90;;;;;;5116767;28;20446;-42
2023/02/18 00:04:08;;;;;;;1.40;1.13;;;11.90;99.90;;;;;;5116734;28;20426;-39
2023/02/18 00:06:35;;;;;;;1.40;1.30;;;11.90;99.90;;;;;;5115512;28;20309;-42
2023/02/18 00:09:03;;;;;;;1.57;0.90;;;11.90;99.90;;;;;;5114966;28;20445;-40
2023/02/18 00:11:30;;;;;;;1.40;1.03;;;11.90;99.90;;;;;;5116111;28;20474;-43
2023/02/18 00:13:58;;;;;;;1.57;0.90;;;11.90;99.90;;;;;;5116162;28;20461;-41
2023/02/18 00:16:25;;;;;;;2.10;1.20;;;11.90;99.90;;;;;;5116648;28;20431;-40
2023/02/18 00:18:55;;;;;;;1.73;1.03;;;11.90;99.90;;;;;;5113572;28;20457;-42
2023/02/18 00:21:21;;;;;;;1.50;1.10;;;11.90;99.90;;;;;;5114193;28;20409;-41
2023/02/18 00:23:47;;;;;;;2.23;1.20;;;11.90;99.90;;;;;;5114800;28;20430;-43
2023/02/18 00:26:14;;;;;;;1.80;1.20;;;11.80;99.90;;;;;;5116483;28;20190;-41
2023/02/18 00:28:41;;;;;;;1.80;1.20;;;11.90;59.90;;;;;;5115862;28;20550;-40
2023/02/18 00:31:12;;;;;;;1.17;0.90;;;11.90;94.50;;;;;;5115758;28;20669;-40
2023/02/18 00:33:38;;;;;;;2.00;1.17;;;11.90;50.30;;;;;;5115785;28;20473;-42
2023/02/18 00:36:07;;;;;;;1.13;1.00;;;11.90;46.80;;;;;;5118018;28;20416;-41
2023/02/18 00:38:33;;;;;;;1.30;1.03;;;11.90;3.40;;;;;;5117251;27;20326;-41
2023/02/18 00:40:59;;;;;;;1.80;1.33;;;11.90;14.90;;;;;;5115837;28;20433;-40
2023/02/18 00:43:25;;;;;;;1.70;1.23;;;11.90;56.00;;;;;;5117264;28;20172;-41
2023/02/18 00:45:51;;;;;;;1.50;1.20;;;11.90;30.00;;;;;;5117409;28;20448;-40
2023/02/18 00:48:17;;;;;;;1.63;1.30;;;11.90;27.40;;;;;;5118962;28;20520;-43
2023/02/18 00:50:43;;;;;;;1.77;1.37;;;11.90;8.60;;;;;;5119734;28;20228;-40
2023/02/18 00:53:08;;;;;;;1.50;1.10;;;11.90;1.00;;;;;;5119751;28;20207;-40
2023/02/18 00:55:42;;;;;;;3.60;1.10;;;11.90;12.80;;;;;;5120450;28;20448;-40
2023/02/18 00:58:08;;;;;;;1.67;1.40;;;11.80;10.20;;;;;;5120934;28;20195;-41
2023/02/18 01:00:34;;;;;;;1.70;1.37;;;11.80;1.80;;;;;;5120197;28;20441;-40
2023/02/18 01:02:59;;;;;;;1.30;1.20;;;11.80;1.00;;;;;;5120040;28;20424;-41
2023/02/18 01:05:25;;;;;;;1.63;1.20;;;11.80;1.00;;;;;;5119909;28;20282;-40
2023/02/18 01:07:51;;;;;;;2.13;1.20;;;11.80;1.00;;;;;;5118059;28;20247;-42
2023/02/18 01:10:16;;;;;;;1.30;1.00;;;11.80;1.00;;;;;;5117975;28;20191;-42
2023/02/18 01:12:42;;;;;;;4.13;1.40;;;11.80;1.00;;;;;;5117067;28;20250;-41
2023/02/18 01:15:08;;;;;;;1.30;1.03;;;11.80;1.00;;;;;;5116665;28;20247;-43
2023/02/18 01:17:34;;;;;;;1.67;1.57;;;11.80;1.00;;;;;;5114891;28;20449;-41
2023/02/18 01:20:03;;;;;;;1.30;1.10;;;11.80;1.00;;;;;;5098438;28;20594;-40
2023/02/18 01:22:29;;;;;;;1.70;1.40;;;11.80;1.00;;;;;;5117925;28;20174;-41
2023/02/18 01:24:54;;;;;;;1.93;1.40;;;11.80;1.00;;;;;;5117605;28;20512;-41
2023/02/18 01:27:20;;;;;;;3.10;1.60;;;11.80;1.00;;;;;;5118335;28;20249;-41
2023/02/18 01:29:46;;;;;;;1.60;1.30;;;11.80;1.00;;;;;;5117992;28;20588;-41
2023/02/18 01:32:11;;;;;;;1.50;1.30;;;11.70;1.00;;;;;;5117961;28;20288;-40
2023/02/18 01:34:37;;;;;;;1.97;1.57;;;11.70;1.00;;;;;;5117459;28;20210;-40
2023/02/18 01:37:02;;;;;;;1.70;1.60;;;11.70;1.00;;;;;;5118362;28;20176;-42
2023/02/18 01:39:28;;;;;;;3.27;1.83;;;11.70;1.00;;;;;;5119176;28;20184;-41
2023/02/18 01:41:54;;;;;;;3.30;2.23;;;11.70;1.00;;;;;;5119462;28;20196;-43
2023/02/18 01:44:22;;;;;;;2.03;1.83;;;11.70;1.00;;;;;;5118751;28;20183;-43
2023/02/18 01:46:48;;;;;;;2.13;1.73;;;11.70;99.90;;;;;;5117786;28;20534;-42
2023/02/18 01:49:23;;;;;;;1.97;1.77;;;11.70;99.90;;;;;;5118212;28;20444;-41
2023/02/18 01:51:53;;;;;;;2.77;2.03;;;11.60;99.90;;;;;;5118446;28;20675;-41
2023/02/18 01:54:26;;;;;;;3.90;1.87;;;11.70;99.90;;;;;;5118119;28;20424;-42
2023/02/18 01:57:15;;;;;;;2.30;2.10;;;11.70;99.90;;;;;;5119326;28;20433;-41
2023/02/18 02:00:15;;;;;;;1.90;1.63;;;11.60;99.90;;;;;;5100698;28;20471;-41
2023/02/18 02:02:45;;;;;;;2.27;2.07;;;11.60;99.90;;;;;;5096220;28;20437;-41
2023/02/18 02:05:11;;;;;;;2.10;1.80;;;11.60;99.90;;;;;;5117757;28;20433;-40
2023/02/18 02:07:38;;;;;;;2.80;2.00;;;11.60;99.90;;;;;;5116037;28;20497;-42
2023/02/18 02:10:04;;;;;;;1.80;1.70;;;11.60;99.90;;;;;;5115324;28;20517;-42
2023/02/18 02:12:55;;;;;;;2.47;2.27;;;11.60;99.90;;;;;;5113717;28;20870;-43
2023/02/18 02:15:56;;;;;;;2.57;2.10;;;11.60;99.90;;;;;;5115503;27;20838;-42
2023/02/18 02:18:44;;;;;;;3.87;1.97;;;11.50;99.90;;;;;;5095818;28;20478;-40
2023/02/18 02:21:20;;;;;;;2.70;1.97;;;11.50;91.90;;;;;;5115856;28;20425;-42
2023/02/18 02:24:13;;;;;;;2.40;1.60;;;11.60;93.10;;;;;;5117265;28;20420;-40
2023/02/18 02:27:23;;;;;;;2.47;2.00;;;11.50;99.90;;;;;;5118266;28;20509;-42
2023/02/18 02:30:16;;;;;;;2.27;1.67;;;11.50;99.90;;;;;;5081854;28;20436;-42
2023/02/18 02:33:00;;;;;;;2.50;2.30;;;11.50;99.90;;;;;;5118195;28;20457;-41
2023/02/18 02:35:34;;;;;;;2.03;1.73;;;11.50;99.90;;;;;;5117157;28;20498;-42
2023/02/18 02:38:11;;;;;;;1.83;1.70;;;11.40;99.90;;;;;;5118039;28;20441;-42
2023/02/18 02:40:58;;;;;;;4.80;2.30;;;11.40;99.90;;;;;;5116263;28;20540;-41
2023/02/18 02:43:56;;;;;;;1.70;1.27;;;11.30;1.00;;;;;;5116498;28;20529;-42
2023/02/18 02:46:30;;;;;;;2.00;1.83;;;11.30;1.00;;;;;;5115916;28;20505;-42
2023/02/18 02:49:17;;;;;;;2.00;1.50;;;11.30;1.00;;;;;;5116118;28;20439;-42
2023/02/18 02:52:08;;;;;;;1.60;1.40;;;11.30;1.00;;;;;;5117412;28;20788;-43
2023/02/18 02:54:34;;;;;;;2.13;1.40;;;11.30;1.00;;;;;;5114681;28;20437;-42
2023/02/18 02:57:17;;;;;;;1.80;1.60;;;11.30;1.00;;;;;;5115950;28;20729;-42
2023/02/18 02:59:48;;;;;;;2.07;1.50;;;11.30;1.00;;;;;;5116025;28;20359;-42
2023/02/18 03:02:36;;;;;;;1.80;1.50;;;11.20;1.00;;;;;;5097370;28;20426;-40
2023/02/18 03:05:26;;;;;;;2.13;1.73;;;11.30;1.00;;;;;;5115355;28;20789;-40
2023/02/18 03:08:08;;;;;;;1.50;1.40;;;11.20;1.00;;;;;;5115982;28;20713;-41
2023/02/18 03:10:55;;;;;;;1.57;1.37;;;11.20;1.00;;;;;;5115570;28;20455;-40
2023/02/18 03:13:30;;;;;;;1.87;1.60;;;11.20;1.00;;;;;;5116653;28;20552;-41
2023/02/18 03:15:58;;;;;;;1.93;1.57;;;11.20;1.00;;;;;;5117101;28;20433;-41
2023/02/18 03:18:46;;;;;;;1.70;1.57;;;11.30;1.00;;;;;;5115745;28;20415;-41
2023/02/18 03:21:24;;;;;;;2.03;1.83;;;11.30;1.00;;;;;;5115719;28;20433;-42
2023/02/18 03:23:57;;;;;;;2.10;1.80;;;11.30;1.00;;;;;;5115173;28;20455;-41
2023/02/18 03:26:25;;;;;;;1.70;1.60;;;11.30;1.00;;;;;;5114724;28;20723;-44
2023/02/18 03:28:52;;;;;;;1.87;1.70;;;11.30;1.00;;;;;;5115083;28;20412;-41
2023/02/18 03:31:22;;;;;;;2.00;1.50;;;11.30;1.00;;;;;;5114833;28;20823;-42
2023/02/18 03:33:53;;;;;;;1.40;1.20;;;11.30;1.00;;;;;;5115253;28;20445;-42
2023/02/18 03:36:20;;;;;;;1.37;1.27;;;11.30;1.00;;;;;;5114850;28;20521;-40
2023/02/18 03:38:59;;;;;;;2.10;1.80;;;11.20;1.00;;;;;;5115538;28;20412;-42
2023/02/18 03:41:24;;;;;;;2.00;1.50;;;11.20;1.00;;;;;;5114724;28;20477;-42
2023/02/18 03:43:59;;;;;;;1.60;1.50;;;11.20;1.00;;;;;;5114840;28;20449;-41
2023/02/18 03:46:28;;;;;;;1.60;1.47;;;11.20;1.00;;;;;;5116060;28;20243;-42
2023/02/18 03:48:54;;;;;;;2.27;1.97;;;11.20;1.00;;;;;;5114194;28;20707;-40
2023/02/18 03:51:20;;;;;;;2.10;1.80;;;11.20;1.00;;;;;;5115243;28;20439;-41
2023/02/18 03:53:46;;;;;;;1.90;1.60;;;11.20;1.00;;;;;;5116269;28;20204;-42
2023/02/18 03:56:12;;;;;;;2.53;2.07;;;11.10;1.00;;;;;;5116682;28;20433;-41
2023/02/18 03:58:38;;;;;;;1.67;1.57;;;11.10;1.00;;;;;;5116428;28;20402;-40
2023/02/18 04:01:04;;;;;;;2.00;1.80;;;11.10;9.60;;;;;;5114984;28;20276;-41
2023/02/18 04:03:29;;;;;;;2.90;2.30;;;11.10;50.20;;;;;;5116183;28;20176;-41
2023/02/18 04:05:55;;;;;;;3.20;1.70;;;11.00;43.00;;;;;;5116950;28;20433;-42
2023/02/18 04:08:20;;;;;;;1.70;1.60;;;11.00;41.70;;;;;;5116169;28;20254;-43
2023/02/18 04:10:46;;;;;;;1.57;1.37;;;11.00;54.50;;;;;;5119972;28;20205;-42
2023/02/18 04:13:12;;;;;;;2.50;1.60;;;11.00;90.70;;;;;;5120952;28;20240;-41
2023/02/18 04:15:38;;;;;;;2.20;1.70;;;10.90;99.90;;;;;;5121321;28;20222;-42
2023/02/18 04:18:03;;;;;;;1.93;1.63;;;10.90;99.90;;;;;;5120872;28;20413;-43
2023/02/18 04:20:29;;;;;;;2.10;1.73;;;10.90;99.90;;;;;;5120688;28;20233;-40
2023/02/18 04:22:55;;;;;;;2.57;2.00;;;10.90;99.90;;;;;;5120844;28;20913;-40
2023/02/18 04:25:20;;;;;;;2.10;1.73;;;10.80;99.90;;;;;;5120408;28;20299;-42
2023/02/18 04:27:46;;;;;;;2.40;2.20;;;10.80;99.90;;;;;;5120588;28;20172;-42
2023/02/18 04:30:12;;;;;;;1.70;1.53;;;10.80;99.90;;;;;;5119003;27;20215;-41
2023/02/18 04:32:38;;;;;;;2.07;1.83;;;10.80;99.90;;;;;;5119639;28;20210;-43
2023/02/18 04:35:04;;;;;;;1.73;1.57;;;10.80;99.90;;;;;;5120348;28;20434;-41
2023/02/18 04:37:30;;;;;;;1.60;1.50;;;10.80;99.90;;;;;;5120204;28;20176;-41
2023/02/18 04:39:55;;;;;;;1.97;1.53;;;10.80;99.90;;;;;;5119610;28;20495;-44
2023/02/18 04:42:21;;;;;;;1.90;1.70;;;10.70;99.90;;;;;;5119899;28;20561;-42
2023/02/18 04:44:47;;;;;;;3.30;1.83;;;10.70;99.90;;;;;;5120168;28;20364;-43
2023/02/18 04:47:12;;;;;;;1.93;1.57;;;10.70;99.90;;;;;;5120365;28;20176;-41
2023/02/18 04:49:38;;;;;;;1.60;1.50;;;10.70;99.90;;;;;;5120481;28;20183;-41
2023/02/18 04:52:04;;;;;;;1.90;1.40;;;10.70;99.90;;;;;;5118841;28;20167;-43
2023/02/18 04:54:29;;;;;;;2.00;1.70;;;10.70;99.90;;;;;;5118360;28;20171;-41
2023/02/18 04:56:55;;;;;;;1.50;1.37;;;10.70;99.90;;;;;;5118351;28;20190;-41
2023/02/18 04:59:21;;;;;;;1.80;1.50;;;10.70;99.90;;;;;;5118208;28;20226;-41
2023/02/18 05:01:46;;;;;;;2.93;1.50;;;10.60;99.90;;;;;;5119015;28;20450;-41
2023/02/18 05:04:12;;;;;;;2.97;1.60;;;10.60;1.00;;;;;;5117632;28;20186;-43
2023/02/18 05:06:41;;;;;;;2.40;1.77;;;10.60;1.00;;;;;;5118517;28;20646;-41
2023/02/18 05:09:07;;;;;;;1.70;1.50;;;10.60;1.00;;;;;;5118683;28;20252;-42
2023/02/18 05:11:33;;;;;;;2.37;1.70;;;10.60;1.00;;;;;;5119189;28;20413;-44
2023/02/18 05:13:58;;;;;;;3.00;1.53;;;10.60;1.00;;;;;;5118672;28;20329;-41
2023/02/18 05:16:24;;;;;;;1.80;1.40;;;10.50;1.00;;;;;;5117619;28;20229;-40
2023/02/18 05:18:50;;;;;;;1.43;1.13;;;10.50;3.50;;;;;;5117586;28;20287;-42
2023/02/18 05:21:16;;;;;;;2.53;2.33;;;10.50;20.40;;;;;;5117693;28;20417;-41
2023/02/18 05:23:41;;;;;;;1.70;1.40;;;10.50;41.00;;;;;;5116833;28;20203;-42
2023/02/18 05:26:07;;;;;;;2.03;1.40;;;10.60;99.90;;;;;;5114162;28;20285;-41
2023/02/18 05:28:33;;;;;;;1.90;1.70;;;10.60;99.90;;;;;;5115059;28;20187;-42
2023/02/18 05:30:59;;;;;;;3.57;1.20;;;10.60;99.90;;;;;;5114104;28;20198;-42
2023/02/18 05:33:24;;;;;;;1.50;1.27;;;10.60;99.90;;;;;;5114615;28;20460;-39
2023/02/18 05:35:50;;;;;;;1.97;1.40;;;10.60;99.90;;;;;;5115389;28;20230;-40
2023/02/18 05:38:15;;;;;;;1.90;1.30;;;10.60;99.90;;;;;;5114385;28;20338;-41
2023/02/18 05:40:41;;;;;;;1.77;1.67;;;10.60;99.90;;;;;;5115771;28;20207;-40
2023/02/18 05:43:07;;;;;;;1.80;1.40;;;10.70;99.90;;;;;;5116073;28;20450;-42
2023/02/18 05:45:32;;;;;;;1.40;1.17;;;10.70;99.90;;;;;;5115492;28;20231;-40
2023/02/18 05:47:58;;;;;;;1.97;1.50;;;10.70;99.90;;;;;;5115266;28;20188;-43
2023/02/18 05:50:24;;;;;;;1.93;1.40;;;10.70;99.90;;;;;;5115282;28;20231;-41
2023/02/18 05:52:49;;;;;;;1.80;1.50;;;10.80;99.90;;;;;;5115527;28;20569;-42
2023/02/18 05:55:15;;;;;;;2.10;1.37;;;10.80;99.90;;;;;;5116075;28;20455;-41
2023/02/18 05:57:40;;;;;;;1.70;1.60;;;10.80;1.00;;;;;;5116079;28;20212;-44
2023/02/18 06:00:09;;;;;;;2.30;1.57;;;10.80;1.00;;;;;;5117836;28;20272;-41
2023/02/18 06:02:35;;;;;;;3.90;1.60;;;10.80;1.00;;;;;;5118830;28;20551;-42
2023/02/18 06:05:00;;;;;;;1.60;1.50;;;10.80;1.00;;;;;;5118851;28;20912;-43
2023/02/18 06:07:26;;;;;;;2.80;1.80;;;10.80;1.00;;;;;;5117347;28;20417;-41
2023/02/18 06:09:52;;;;;;;3.03;1.80;;;10.80;1.00;;;;;;5114899;28;20183;-41
2023/02/18 06:12:18;;;;;;;2.77;1.50;;;10.80;1.00;;;;;;5114303;28;20258;-41
2023/02/18 06:14:44;;;;;;;1.97;1.70;;;10.80;1.00;;;;;;5113217;28;20421;-42
2023/02/18 06:17:11;;;;;;;2.10;1.60;;;10.80;1.00;;;;;;5111692;28;20271;-41
2023/02/18 06:19:37;;;;;;;2.30;1.87;;;10.80;1.00;;;;;;5113559;28;20604;-42
2023/02/18 06:22:03;;;;;;;1.60;1.40;;;10.80;1.00;;;;;;5115499;28;20705;-41
2023/02/18 06:24:29;;;;;;;1.90;1.63;;;10.80;1.00;;;;;;5114398;28;20465;-42
2023/02/18 06:26:55;;;;;;;2.13;1.93;;;10.80;1.00;;;;;;5116476;28;20448;-41
2023/02/18 06:29:20;;;;;;;2.00;1.60;;;10.80;1.00;;;;;;5115716;28;20176;-41
2023/02/18 06:31:46;;;;;;;3.30;1.50;;;10.80;1.00;;;;;;5116288;28;20179;-41
2023/02/18 06:34:12;;;;;;;1.57;1.40;;;10.80;1.00;;;;;;5114724;28;20300;-42
2023/02/18 06:36:37;;;;;;;1.80;1.70;;;10.80;1.00;;;;;;5115855;28;20186;-41
2023/02/18 06:39:04;;;;;;;2.00;1.80;;;10.80;1.00;;;;;;5115931;28;20443;-42
2023/02/18 06:41:29;;;;;;;1.77;1.50;;;10.90;1.00;;;;;;5115764;28;20187;-42
2023/02/18 06:43:55;;;;;;;2.13;1.67;;;10.90;1.00;;;;;;5115687;28;20414;-43
2023/02/18 06:46:21;;;;;;;2.40;1.73;;;10.90;1.00;;;;;;5115203;28;20183;-42
2023/02/18 06:48:47;;;;;;;2.00;1.53;;;10.90;1.00;;;;;;5114236;28;20180;-43
2023/02/18 06:51:14;;;;;;;1.83;1.37;;;10.90;1.00;;;;;;5115719;28;20253;-41
2023/02/18 06:53:41;;;;;;;2.27;1.87;;;10.90;1.00;;;;;;5115256;28;20463;-42
2023/02/18 06:56:06;;;;;;;2.20;1.80;;;11.00;1.00;;;;;;5114725;28;20425;-41
2023/02/18 06:58:32;;;;;;;2.00;1.70;;;11.00;1.00;;;;;;5114857;28;20420;-40
2023/02/18 07:00:58;;;;;;;1.87;1.67;;;11.00;1.00;;;;;;5113066;28;20179;-42
2023/02/18 07:03:24;;;;;;;3.50;1.83;;;11.00;1.00;;;;;;5097484;28;20204;-41
2023/02/18 07:05:49;;;;;;;2.50;1.90;;;11.10;1.00;;;;;;5114776;28;20827;-43
2023/02/18 07:08:16;;;;;;;2.13;1.70;;;11.10;1.00;;;;;;5115438;28;20518;-42
2023/02/18 07:10:42;;;;;;;1.87;1.57;;;11.10;1.00;;;;;;5113744;28;20184;-41
2023/02/18 07:13:07;;;;;;;1.77;1.43;;;11.10;1.00;;;;;;5113294;28;20490;-40
2023/02/18 07:15:33;;;;;;;1.67;1.57;;;11.10;1.00;;;;;;5111561;28;20203;-41
2023/02/18 07:17:59;;;;;;;1.60;1.43;;;11.20;1.00;;;;;;5113703;28;20558;-40
2023/02/18 07:20:25;;;;;;;1.53;1.37;;;11.20;99.90;;;;;;5114504;28;20203;-41
2023/02/18 07:22:51;;;;;;;1.60;1.40;;;11.30;99.90;;;;;;5115154;28;20227;-40
2023/02/18 07:25:16;;;;;;;4.50;1.63;;;11.30;99.90;;;;;;5115923;28;20235;-41
2023/02/18 07:27:42;;;;;;;1.97;1.70;;;11.30;99.90;;;;;;5114922;28;20417;-41
2023/02/18 07:30:08;;;;;;;2.13;1.77;;;11.40;99.90;;;;;;5115680;28;20266;-43
2023/02/18 07:32:34;;;;;;;2.17;1.70;;;11.40;99.90;;;;;;5116040;28;20223;-41
2023/02/18 07:35:00;;;;;;;2.43;1.80;;;11.40;8.40;;;;;;5115235;28;20413;-42
2023/02/18 07:37:26;;;;;;;3.07;1.83;;;11.50;1.00;;;;;;5116709;28;20439;-41
2023/02/18 07:39:52;;;;;;;3.10;2.10;;;11.50;1.00;;;;;;5115928;28;20190;-41
2023/02/18 07:42:17;;;;;;;2.47;2.27;;;11.60;99.90;;;;;;5116257;28;20425;-41
2023/02/18 07:44:43;;;;;;;2.27;2.07;;;11.70;99.90;;;;;;5118428;28;20453;-40
2023/02/18 07:47:13;;;;;;;3.10;2.03;;;11.70;1.00;;;;;;5117187;28;20171;-41
2023/02/18 07:49:38;;;;;;;2.30;2.10;;;11.80;1.00;;;;;;5119586;28;20516;-42
2023/02/18 07:52:04;;;;;;;2.70;2.43;;;11.90;99.90;;;;;;5120327;28;20421;-41
2023/02/18 07:54:29;;;;;;;3.10;2.70;;;12.00;1.00;;;;;;5121589;28;20450;-40
2023/02/18 07:56:55;;;;;;;2.27;2.07;;;12.10;1.00;;;;;;5120760;28;20179;-42
2023/02/18 07:59:21;;;;;;;3.70;2.57;;;12.10;99.90;;;;;;5120543;28;20237;-41
2023/02/18 08:01:46;;;;;;;2.53;2.27;;;12.20;49.30;;;;;;5121412;28;20172;-41
2023/02/18 08:04:14;;;;;;;2.60;2.10;;;12.20;1.00;;;;;;5119067;28;20183;-42
2023/02/18 08:06:45;;;;;;;2.97;1.90;;;12.30;1.00;;;;;;5116249;28;20240;-39
2023/02/18 08:09:11;;;;;;;2.57;1.60;;;12.40;1.00;;;;;;5116876;28;20456;-42
2023/02/18 08:11:39;;;;;;;3.10;2.20;;;12.50;99.90;;;;;;5117557;28;20822;-41
2023/02/18 08:14:05;;;;;;;2.70;2.17;;;12.50;99.90;;;;;;5118768;27;20523;-43
2023/02/18 08:16:31;;;;;;;3.13;1.70;;;12.60;29.90;;;;;;5117351;28;20823;-41
2023/02/18 08:18:57;;;;;;;3.00;1.97;;;12.60;1.00;;;;;;5118815;28;20477;-40
2023/02/18 08:21:24;;;;;;;2.03;1.70;;;12.70;1.00;;;;;;5117322;28;20237;-42
2023/02/18 08:23:51;;;;;;;2.80;1.73;;;12.70;1.00;;;;;;5116859;28;20485;-40
2023/02/18 08:26:17;;;;;;;2.87;1.80;;;12.70;1.00;;;;;;5117830;28;20429;-41
2023/02/18 08:28:43;;;;;;;2.83;1.50;;;12.80;99.90;;;;;;5116602;28;20871;-41
2023/02/18 08:31:25;;;;;;;2.10;1.50;;;12.80;99.90;;;;;;5116883;28;20723;-42
2023/02/18 08:33:52;;;;;;;2.27;1.90;;;12.90;99.90;;;;;;5116557;28;20529;-41
2023/02/18 08:36:18;;;;;;;5.43;1.90;;;13.00;99.90;;;;;;5116666;28;20918;-41
2023/02/18 08:38:43;;;;;;;1.97;1.67;;;13.10;1.00;;;;;;5115191;28;20524;-41
2023/02/18 08:41:09;;;;;;;2.47;1.80;;;13.10;1.00;;;;;;5115021;28;20187;-42
2023/02/18 08:43:35;;;;;;;4.40;1.60;;;13.10;1.00;;;;;;5118029;28;20565;-41
2023/02/18 08:46:01;;;;;;;2.77;1.90;;;13.10;1.00;;;;;;5098874;28;20176;-41
2023/02/18 08:48:27;;;;;;;2.80;2.27;;;13.20;1.00;;;;;;5117256;28;20441;-41
2023/02/18 08:50:53;;;;;;;2.50;1.83;;;13.20;1.00;;;;;;5115812;28;20215;-41
2023/02/18 08:53:19;;;;;;;2.77;1.97;;;13.30;99.90;;;;;;5116006;28;20734;-41
2023/02/18 08:55:45;;;;;;;7.90;2.23;;;13.40;99.90;;;;;;5117774;28;20183;-42
2023/02/18 08:58:11;;;;;;;4.37;1.77;;;13.50;99.90;;;;;;5115398;28;20846;-41
2023/02/18 09:00:38;;;;;;;1.80;1.30;;;13.60;99.90;;;;;;5095712;28;20198;-40
2023/02/18 09:03:03;;;;;;;1.50;1.33;;;13.70;27.90;;;;;;5116378;28;20418;-41
2023/02/18 09:05:29;;;;;;;2.17;1.50;;;13.80;1.00;;;;;;5116424;28;20434;-41
2023/02/18 09:07:54;;;;;;;1.53;1.43;;;13.90;1.00;;;;;;5118421;28;20172;-41
2023/02/18 09:10:20;;;;;;;1.93;1.67;;;14.00;1.00;;;;;;5116922;28;20167;-42
2023/02/18 09:12:46;;;;;;;2.23;1.90;;;14.10;1.00;;;;;;5115702;28;20577;-42
2023/02/18 09:15:11;;;;;;;1.87;1.50;;;14.20;1.00;;;;;;5116638;28;20203;-42
2023/02/18 09:17:37;;;;;;;2.60;1.50;;;14.30;1.00;;;;;;5114578;28;20167;-40
2023/02/18 09:20:03;;;;;;;2.03;1.27;;;14.40;1.00;;;;;;5113900;28;20236;-42
2023/02/18 09:22:29;;;;;;;1.43;1.13;;;14.60;99.90;;;;;;5116797;28;20192;-42
2023/02/18 09:24:54;;;;;;;2.50;1.50;;;14.80;99.90;;;;;;5116725;28;20854;-41
2023/02/18 09:27:21;;;;;;;2.27;1.60;;;15.30;99.90;;;;;;5114091;28;20456;-43
2023/02/18 09:29:47;;;;;;;1.60;1.30;;;16.00;99.90;;;;;;5113562;28;20164;-46
2023/02/18 09:32:12;;;;;;;1.60;1.30;;;16.60;30.90;;;;;;5113897;28;20436;-42
2023/02/18 09:34:38;;;;;;;2.00;1.50;;;17.30;1.00;;;;;;5114643;28;20486;-42
2023/02/18 09:37:04;;;;;;;1.80;1.70;;;17.80;1.00;;;;;;5114379;28;20266;-42
2023/02/18 09:39:30;;;;;;;2.57;1.53;;;18.10;1.00;;;;;;5116512;28;20171;-42
2023/02/18 09:42:01;;;;;;;4.50;1.30;;;18.30;1.00;;;;;;5117285;28;20478;-41
2023/02/18 09:44:43;;;;;;;2.50;1.83;;;18.20;1.00;;;;;;5113391;28;20179;-43
2023/02/18 09:47:35;;;;;;;1.50;1.27;;;18.10;1.00;;;;;;5114720;28;20515;-42
2023/02/18 09:50:17;;;;;;;2.33;1.60;;;18.30;1.00;;;;;;5112593;28;20421;-43
2023/02/18 09:52:42;;;;;;;1.90;1.50;;;18.30;1.00;;;;;;5114224;28;20480;-42
2023/02/18 09:55:27;;;;;;;1.43;1.13;;;18.50;1.00;;;;;;5113084;28;20879;-42
2023/02/18 09:57:58;;;;;;;1.53;1.17;;;18.40;1.00;;;;;;5115689;28;20424;-42
2023/02/18 10:00:35;;;;;;;1.70;1.30;;;18.30;1.00;;;;;;5114128;28;20398;-41
2023/02/18 10:03:12;;;;;;;2.20;1.50;;;18.00;1.00;;;;;;5113436;28;20409;-42
2023/02/18 10:05:42;;;;;;;3.80;1.40;;;17.70;1.00;;;;;;5113811;28;20448;-43
2023/02/18 10:08:25;;;;;;;2.80;1.40;;;17.30;1.00;;;;;;5113006;28;20765;-42
2023/02/18 10:10:54;;;;;;;1.67;1.30;;;17.00;1.00;;;;;;5115812;28;20517;-42
2023/02/18 10:13:22;;;;;;;2.20;1.23;;;16.90;1.00;;;;;;5097187;28;20461;-43
2023/02/18 10:15:48;;;;;;;1.97;1.43;;;16.80;1.00;;;;;;5115533;28;20491;-42
2023/02/18 10:18:35;;;;;;;2.17;1.97;;;16.70;1.00;;;;;;5132686;27;20418;-44
2023/02/18 10:21:07;;;;;;;3.30;1.57;;;16.60;1.00;;;;;;5114355;28;20437;-42
2023/02/18 10:23:37;;;;;;;2.63;1.60;;;16.50;1.00;;;;;;5113586;28;20426;-43
2023/02/18 10:26:06;;;;;;;4.87;1.70;;;16.50;1.00;;;;;;5113754;28;20566;-43
2023/02/18 10:28:37;;;;;;;3.53;1.60;;;16.50;1.00;;;;;;5108225;27;20544;-44
2023/02/18 10:31:25;;;;;;;1.87;1.23;;;16.40;1.00;;;;;;5109077;28;20471;-42
2023/02/18 10:33:54;;;;;;;2.20;1.30;;;16.40;1.00;;;;;;5090767;28;20460;-43
2023/02/18 10:36:42;;;;;;;2.00;1.50;;;16.30;1.00;;;;;;5108775;28;20716;-42
2023/02/18 10:39:19;;;;;;;2.10;1.60;;;16.20;1.00;;;;;;5110158;28;20417;-44
2023/02/18 10:42:02;;;;;;;1.93;1.50;;;16.00;1.00;;;;;;5111329;28;20405;-43
2023/02/18 10:44:49;;;;;;;2.13;1.73;;;15.90;1.00;;;;;;5113114;28;20448;-43
2023/02/18 10:48:03;;;;;;;2.30;1.53;;;15.70;1.00;;;;;;5111309;28;20830;-42
2023/02/18 10:50:31;;;;;;;3.70;1.97;;;15.60;1.00;;;;;;5079813;28;20430;-41
2023/02/18 10:53:00;;;;;;;2.53;1.77;;;15.60;1.00;;;;;;5111511;28;20406;-40
2023/02/18 10:55:38;;;;;;;2.60;2.10;;;15.60;1.00;;;;;;5113600;28;20398;-41
2023/02/18 10:58:29;;;;;;;2.50;2.00;;;15.60;1.00;;;;;;5094879;28;20441;-43
2023/02/18 11:00:55;;;;;;;2.50;1.87;;;15.60;1.00;;;;;;5110645;28;20440;-44
2023/02/18 11:03:37;;;;;;;3.83;3.47;;;15.50;1.00;;;;;;5092731;28;20716;-44
2023/02/18 11:06:03;;;;;;;3.00;2.13;;;15.50;1.00;;;;;;5110867;28;20512;-42
2023/02/18 11:08:38;;;;;;;3.53;2.17;;;15.40;1.00;;;;;;5111478;28;20719;-42
2023/02/18 11:11:16;;;;;;;2.33;1.50;;;15.40;1.00;;;;;;5111746;28;20503;-45
2023/02/18 11:13:42;;;;;;;1.43;1.10;;;15.50;1.00;;;;;;5108206;28;20405;-43
2023/02/18 11:16:08;;;;;;;1.90;1.40;;;15.50;1.00;;;;;;5108780;28;20479;-42
2023/02/18 11:18:37;;;;;;;1.97;1.27;;;15.60;1.00;;;;;;5108091;28;20418;-42
2023/02/18 11:21:09;;;;;;;2.57;1.20;;;15.70;1.00;;;;;;5107611;28;20421;-44
2023/02/18 11:23:46;;;;;;;1.40;1.00;;;15.90;1.00;;;;;;5108137;28;20425;-43
2023/02/18 11:26:14;;;;;;;2.93;1.07;;;16.20;1.00;;;;;;5108942;28;20461;-43
2023/02/18 11:28:44;;;;;;;1.47;1.10;;;16.40;1.00;;;;;;5110601;28;20439;-45
2023/02/18 11:31:23;;;;;;;1.30;1.00;;;16.50;1.00;;;;;;5129974;27;20524;-44
2023/02/18 11:33:55;;;;;;;2.20;1.50;;;16.60;1.00;;;;;;5127741;27;20857;-44
2023/02/18 11:36:30;;;;;;;1.73;1.10;;;16.90;1.00;;;;;;5121090;27;20723;-45
2023/02/18 11:39:06;;;;;;;3.00;1.00;;;17.10;1.00;;;;;;5102460;28;20516;-46
2023/02/18 11:41:36;;;;;;;1.43;1.00;;;17.30;1.00;;;;;;5094972;28;20442;-46
2023/02/18 11:44:04;;;;;;;2.00;1.20;;;17.50;1.00;;;;;;5092872;28;20752;-45
2023/02/18 11:46:30;;;;;;;1.40;0.97;;;17.70;1.00;;;;;;5095091;28;20509;-44
2023/02/18 11:48:56;;;;;;;1.40;0.90;;;17.90;1.00;;;;;;5096532;28;20766;-45
2023/02/18 11:51:27;;;;;;;1.67;1.20;;;18.00;1.00;;;;;;5078659;28;20173;-43
2023/02/18 11:54:22;;;;;;;2.00;1.20;;;18.30;1.00;;;;;;5093528;28;20402;-43
2023/02/18 11:57:00;;;;;;;2.10;1.23;;;18.50;1.00;;;;;;5094227;28;20703;-43
2023/02/18 11:59:27;;;;;;;2.40;1.10;;;18.60;1.00;;;;;;5095749;28;20418;-44
2023/02/18 12:02:22;;;;;;;2.70;1.20;;;18.70;1.00;;;;;;5094277;28;20533;-43
2023/02/18 12:05:10;;;;;;;1.33;1.00;;;18.70;1.00;;;;;;5078203;28;20711;-47
2023/02/18 12:07:36;;;;;;;2.60;1.37;;;18.70;1.00;;;;;;5094400;28;20505;-44
2023/02/18 12:10:21;;;;;;;2.23;1.40;;;18.70;1.00;;;;;;5095561;28;20426;-44
2023/02/18 12:12:52;;;;;;;1.37;1.20;;;18.70;1.00;;;;;;5094929;28;20186;-45
2023/02/18 12:15:25;;;;;;;2.00;1.40;;;18.70;1.00;;;;;;5095055;28;20886;-44
2023/02/18 12:17:57;;;;;;;2.33;1.27;;;18.60;1.00;;;;;;5097945;28;20406;-47
2023/02/18 12:20:43;;;;;;;1.90;1.40;;;18.50;1.00;;;;;;5094915;28;20986;-44
2023/02/18 12:23:54;;;;;;;2.77;1.50;;;18.40;1.00;;;;;;5093988;28;20426;-43
2023/02/18 12:26:28;;;;;;;2.40;1.20;;;18.20;1.00;;;;;;5092889;28;20454;-43
2023/02/18 12:29:29;;;;;;;1.87;1.30;;;18.10;1.00;;;;;;5091513;28;20418;-42
2023/02/18 12:32:18;;;;;;;3.00;1.20;;;18.00;1.00;;;;;;5093494;28;20415;-43
2023/02/18 12:34:52;;;;;;;2.03;1.50;;;18.00;1.00;;;;;;5091015;28;20425;-44
2023/02/18 12:37:44;;;;;;;3.73;1.40;;;17.90;1.00;;;;;;5074797;28;20603;-42
2023/02/18 12:40:30;;;;;;;1.30;1.10;;;17.90;1.00;;;;;;5055727;28;20833;-43
2023/02/18 12:43:00;;;;;;;1.87;1.30;;;17.90;1.00;;;;;;5095376;28;20697;-41
2023/02/18 12:45:43;;;;;;;1.83;1.43;;;18.00;1.00;;;;;;5094343;28;20415;-41
2023/02/18 12:48:26;;;;;;;1.73;1.27;;;17.90;1.00;;;;;;5096607;28;20474;-41
2023/02/18 12:50:51;;;;;;;1.70;1.20;;;17.80;1.00;;;;;;5095508;28;20489;-42
2023/02/18 12:53:38;;;;;;;1.57;1.23;;;17.80;1.00;;;;;;5096738;28;20426;-42
2023/02/18 12:56:12;;;;;;;2.23;1.43;;;17.80;1.00;;;;;;5094621;28;20556;-42
2023/02/18 12:58:50;;;;;;;2.67;1.70;;;17.80;1.00;;;;;;5094858;28;20904;-42
2023/02/18 13:01:30;;;;;;;1.80;1.50;;;17.80;1.00;;;;;;5095644;28;21081;-42
2023/02/18 13:03:57;;;;;;;1.90;1.70;;;17.80;1.00;;;;;;5095400;28;20812;-42
2023/02/18 13:06:41;;;;;;;2.50;1.57;;;17.80;1.00;;;;;;5096758;28;20434;-40
2023/02/18 13:09:32;;;;;;;2.57;1.90;;;17.70;1.00;;;;;;5095684;28;20423;-41
2023/02/18 13:12:23;;;;;;;2.00;1.60;;;17.60;1.00;;;;;;5093706;28;20414;-42